Time;durP1;ratioP1;P1;durP2;ratioP2;P2;SDS_P1;SDS_P2;PMS_P1;PMS_P2;Temp;Humidity;BMP_temperature;BMP_pressure;BME280_temperature;BME280_humidity;BME280_pressure;Samples;Min_cycle;Max_cycle;Signal;HPM_P1;HPM_P2
2022/04/12 00:00:19;;;;;;;6.72;4.95;;;9.80;99.90;;;;;;6106371;23;20025;-87
2022/04/12 00:02:47;;;;;;;7.82;5.75;;;10.10;99.90;;;;;;6130914;23;20401;-89
2022/04/12 00:05:14;;;;;;;10.82;7.38;;;9.80;99.90;;;;;;6131650;23;20017;-89
2022/04/12 00:07:58;;;;;;;12.32;7.72;;;9.60;99.90;;;;;;6130697;23;20103;-90
2022/04/12 00:10:27;;;;;;;18.15;9.05;;;9.60;99.90;;;;;;6106102;23;20014;-90
2022/04/12 00:12:56;;;;;;;11.95;8.23;;;9.50;99.90;;;;;;6106751;23;20018;-90
2022/04/12 00:15:23;;;;;;;15.50;8.38;;;9.40;99.90;;;;;;6107066;23;20028;-90
2022/04/12 00:20:36;;;;;;;14.43;7.32;;;9.70;99.90;;;;;;6130721;23;20424;-90
2022/04/12 00:23:04;;;;;;;9.00;6.10;;;9.50;99.90;;;;;;6106477;23;20049;-90
2022/04/12 00:25:31;;;;;;;14.57;10.07;;;9.60;99.90;;;;;;6106157;23;20029;-91
2022/04/12 00:27:59;;;;;;;14.32;8.50;;;9.40;99.90;;;;;;6130199;23;20022;-89
2022/04/12 00:30:28;;;;;;;10.30;6.68;;;9.40;99.90;;;;;;6130243;23;20025;-89
2022/04/12 00:32:56;;;;;;;14.60;7.70;;;9.50;99.90;;;;;;6106038;23;20022;-90
2022/04/12 00:35:24;;;;;;;11.90;5.93;;;9.60;99.90;;;;;;6106288;23;20084;-89
2022/04/12 00:37:52;;;;;;;11.60;7.35;;;9.70;99.90;;;;;;6082434;23;20017;-90
2022/04/12 00:40:21;;;;;;;11.00;6.40;;;9.60;99.90;;;;;;6155863;23;20030;-91
2022/04/12 00:42:48;;;;;;;11.40;6.45;;;9.70;99.90;;;;;;6106413;23;20021;-91
2022/04/12 00:45:15;;;;;;;11.93;6.70;;;9.60;99.90;;;;;;6130360;23;20021;-89
2022/04/12 00:47:43;;;;;;;8.40;5.60;;;9.70;99.90;;;;;;6106133;23;20029;-90
2022/04/12 00:50:13;;;;;;;7.78;5.30;;;9.60;99.90;;;;;;6130092;23;20014;-89
2022/04/12 00:52:45;;;;;;;20.08;8.80;;;9.60;99.90;;;;;;6130481;23;20037;-89
2022/04/12 00:55:12;;;;;;;13.27;8.30;;;9.40;99.90;;;;;;6105421;23;20026;-89
2022/04/12 00:57:41;;;;;;;15.70;8.15;;;9.40;99.90;;;;;;6129641;23;20022;-88
2022/04/12 01:00:09;;;;;;;13.45;8.23;;;9.50;99.90;;;;;;6105624;23;20026;-89
2022/04/12 01:02:37;;;;;;;12.32;8.07;;;9.70;99.90;;;;;;6130280;23;20045;-88
2022/04/12 01:05:05;;;;;;;11.10;6.82;;;9.60;99.90;;;;;;6154872;23;20095;-89
2022/04/12 01:07:35;;;;;;;13.02;7.82;;;9.60;99.90;;;;;;6130212;23;20017;-90
2022/04/12 01:10:03;;;;;;;18.13;9.02;;;9.60;99.90;;;;;;6105511;23;20021;-89
2022/04/12 01:12:38;;;;;;;21.45;9.88;;;9.50;99.90;;;;;;6129878;23;20101;-89
2022/04/12 01:15:18;;;;;;;10.27;5.32;;;9.40;99.90;;;;;;6156743;23;20337;-88
2022/04/12 01:17:46;;;;;;;11.55;6.15;;;9.50;99.90;;;;;;6132475;23;20024;-89
2022/04/12 01:20:24;;;;;;;9.77;6.78;;;9.50;99.90;;;;;;6105987;23;20096;-89
2022/04/12 01:23:01;;;;;;;8.10;5.38;;;9.50;99.90;;;;;;6129941;23;20025;-90
2022/04/12 01:25:28;;;;;;;10.90;6.45;;;9.50;99.90;;;;;;6105748;23;20048;-88
2022/04/12 01:27:56;;;;;;;12.48;7.43;;;9.50;99.90;;;;;;6156176;23;20013;-89
2022/04/12 01:30:23;;;;;;;9.82;7.43;;;9.40;99.90;;;;;;6106380;23;20025;-90
2022/04/12 01:32:50;;;;;;;8.68;6.47;;;9.50;99.90;;;;;;6130123;23;20025;-89
2022/04/12 01:35:17;;;;;;;12.43;7.43;;;9.40;99.90;;;;;;6109472;23;20389;-90
2022/04/12 01:37:45;;;;;;;12.63;7.43;;;9.50;99.90;;;;;;6158297;23;20072;-89
2022/04/12 01:40:12;;;;;;;13.27;8.18;;;9.40;99.90;;;;;;6134684;23;20017;-88
2022/04/12 01:42:39;;;;;;;12.50;6.88;;;9.30;99.90;;;;;;6159819;23;20029;-88
2022/04/12 01:45:07;;;;;;;9.68;5.57;;;9.30;99.90;;;;;;6130258;23;20026;-88
2022/04/12 01:47:35;;;;;;;17.58;8.73;;;9.40;99.90;;;;;;6105202;23;20057;-91
2022/04/12 01:50:04;;;;;;;8.05;5.50;;;9.30;99.90;;;;;;6129559;23;20047;-90
2022/04/12 01:52:33;;;;;;;11.45;5.88;;;9.40;99.90;;;;;;6130104;23;20017;-89
2022/04/12 01:55:02;;;;;;;12.57;7.80;;;9.40;99.90;;;;;;6130036;23;20048;-89
2022/04/12 01:57:29;;;;;;;9.43;5.43;;;9.20;99.90;;;;;;6105144;23;20072;-89
2022/04/12 02:00:00;;;;;;;17.08;9.15;;;9.20;99.90;;;;;;6106027;23;20017;-91
2022/04/12 02:02:27;;;;;;;9.48;5.90;;;9.30;99.90;;;;;;6157766;23;20025;-89
2022/04/12 02:04:54;;;;;;;13.35;7.65;;;9.20;99.90;;;;;;6131536;23;20028;-89
2022/04/12 02:07:21;;;;;;;11.27;6.57;;;9.20;99.90;;;;;;6130278;23;20025;-90
2022/04/12 02:09:48;;;;;;;6.05;4.78;;;9.30;99.90;;;;;;6105483;23;20057;-90
2022/04/12 02:12:15;;;;;;;8.70;5.53;;;9.40;99.90;;;;;;6106064;23;20076;-90
2022/04/12 02:14:42;;;;;;;18.50;10.23;;;9.30;99.90;;;;;;6105762;23;20017;-90
2022/04/12 02:17:09;;;;;;;9.30;5.40;;;9.20;99.90;;;;;;6130584;23;20104;-90
2022/04/12 02:19:37;;;;;;;9.90;5.85;;;9.30;99.90;;;;;;6129519;23;20021;-89
2022/04/12 02:22:05;;;;;;;17.15;9.57;;;9.30;99.90;;;;;;6130491;23;20025;-90
2022/04/12 02:24:32;;;;;;;13.95;7.35;;;9.00;99.90;;;;;;6105414;23;20085;-89
2022/04/12 02:26:59;;;;;;;15.70;8.88;;;8.90;99.90;;;;;;6130419;23;20375;-89
2022/04/12 02:29:26;;;;;;;17.08;9.32;;;9.00;99.90;;;;;;6155775;23;20052;-90
2022/04/12 02:31:53;;;;;;;9.38;5.75;;;8.80;99.90;;;;;;6105292;23;20018;-91
2022/04/12 02:34:21;;;;;;;12.70;6.95;;;9.10;99.90;;;;;;6129886;23;20018;-90
2022/04/12 02:36:48;;;;;;;12.02;6.32;;;9.00;99.90;;;;;;6105433;23;20433;-89
2022/04/12 02:39:16;;;;;;;13.35;7.65;;;9.00;99.90;;;;;;6130175;23;20018;-92
2022/04/12 02:41:44;;;;;;;13.77;7.03;;;8.90;99.90;;;;;;6130575;23;20467;-90
2022/04/12 02:44:11;;;;;;;15.98;8.98;;;9.10;99.90;;;;;;6105543;23;20107;-91
2022/04/12 02:46:38;;;;;;;14.35;8.27;;;9.10;99.90;;;;;;6155765;23;20028;-89
2022/04/12 02:49:05;;;;;;;13.57;8.27;;;9.10;99.90;;;;;;6129349;23;20032;-90
2022/04/12 02:51:32;;;;;;;7.47;5.07;;;8.90;99.90;;;;;;6129104;23;20033;-90
2022/04/12 02:53:59;;;;;;;10.85;6.30;;;8.90;99.90;;;;;;6129925;23;20040;-89
2022/04/12 02:56:26;;;;;;;16.17;7.40;;;9.00;99.90;;;;;;6105339;23;20021;-91
2022/04/12 02:58:53;;;;;;;8.60;5.95;;;9.00;99.90;;;;;;6105541;23;20026;-90
2022/04/12 03:01:20;;;;;;;8.05;5.65;;;9.00;99.90;;;;;;6104838;23;20045;-87
2022/04/12 03:03:48;;;;;;;9.25;6.03;;;8.90;99.90;;;;;;6129838;23;20021;-89
2022/04/12 03:06:15;;;;;;;15.57;8.48;;;9.10;99.90;;;;;;6130224;23;20025;-90
2022/04/12 03:08:42;;;;;;;16.88;8.70;;;8.90;99.90;;;;;;6130499;23;20341;-89
2022/04/12 03:11:09;;;;;;;8.55;6.07;;;8.80;99.90;;;;;;6129703;23;20520;-90
2022/04/12 03:13:36;;;;;;;10.93;6.90;;;8.80;99.90;;;;;;6106088;23;20504;-89
2022/04/12 03:16:03;;;;;;;11.02;6.93;;;8.90;99.90;;;;;;6129975;23;20029;-88
2022/04/12 03:18:30;;;;;;;10.27;5.57;;;8.90;99.90;;;;;;6130668;23;20464;-90
2022/04/12 03:20:58;;;;;;;9.85;5.97;;;8.90;99.90;;;;;;6130144;23;20018;-90
2022/04/12 03:23:25;;;;;;;12.80;8.13;;;8.80;99.90;;;;;;6107953;23;20017;-90
2022/04/12 03:25:52;;;;;;;10.88;7.07;;;8.70;99.90;;;;;;6131888;23;20068;-90
2022/04/12 03:28:19;;;;;;;10.07;6.53;;;8.90;99.90;;;;;;6132199;23;20032;-91
2022/04/12 03:30:46;;;;;;;9.43;6.05;;;8.90;99.90;;;;;;6132595;23;20041;-90
2022/04/12 03:33:13;;;;;;;11.20;6.80;;;8.90;99.90;;;;;;6108097;23;20028;-90
2022/04/12 03:35:40;;;;;;;11.02;6.55;;;8.70;99.90;;;;;;6132334;23;20048;-90
2022/04/12 03:38:07;;;;;;;9.13;5.95;;;8.70;99.90;;;;;;6109537;23;20021;-90
2022/04/12 03:40:34;;;;;;;10.80;6.47;;;8.70;99.90;;;;;;6137165;23;20040;-90
2022/04/12 03:43:04;;;;;;;14.43;8.90;;;8.70;99.90;;;;;;6161673;23;20017;-89
2022/04/12 03:45:32;;;;;;;13.68;7.15;;;8.60;99.90;;;;;;6113122;23;20041;-89
2022/04/12 03:48:00;;;;;;;12.57;6.80;;;8.70;99.90;;;;;;6131661;23;20405;-90
2022/04/12 03:50:28;;;;;;;15.25;7.32;;;8.70;99.90;;;;;;6131367;23;20501;-91
2022/04/12 03:52:55;;;;;;;13.90;7.35;;;8.50;99.90;;;;;;6107597;23;20051;-89
2022/04/12 03:55:31;;;;;;;10.23;6.32;;;8.60;99.90;;;;;;6107620;23;20370;-89
2022/04/12 03:58:02;;;;;;;10.30;5.47;;;8.60;99.90;;;;;;6131229;23;20039;-89
2022/04/12 04:00:29;;;;;;;7.70;5.47;;;8.60;99.90;;;;;;6131741;23;20018;-91
2022/04/12 04:02:56;;;;;;;10.52;6.97;;;8.80;99.90;;;;;;6131767;23;20109;-89
2022/04/12 04:05:24;;;;;;;14.55;8.15;;;8.80;99.90;;;;;;6131251;23;20048;-89
2022/04/12 04:08:06;;;;;;;9.35;5.15;;;8.70;99.90;;;;;;6106852;23;20017;-89
2022/04/12 04:10:34;;;;;;;13.80;6.40;;;8.70;99.90;;;;;;6131473;23;20097;-90
2022/04/12 04:13:04;;;;;;;11.75;5.75;;;8.70;99.90;;;;;;6132125;23;20014;-93
2022/04/12 04:15:33;;;;;;;12.40;6.13;;;8.70;99.90;;;;;;6107995;23;20455;-90
2022/04/12 04:18:08;;;;;;;9.68;6.32;;;8.70;99.90;;;;;;6133159;23;20014;-91
2022/04/12 04:20:36;;;;;;;10.82;6.72;;;8.70;99.90;;;;;;6130826;23;20374;-88
2022/04/12 04:23:03;;;;;;;9.65;5.47;;;8.70;99.90;;;;;;6105565;23;20025;-87
2022/04/12 04:25:31;;;;;;;13.10;7.28;;;8.70;99.90;;;;;;6105933;23;20184;-87
2022/04/12 04:27:58;;;;;;;9.60;5.72;;;8.60;99.90;;;;;;6106774;23;20018;-88
2022/04/12 04:30:26;;;;;;;7.95;4.45;;;8.50;99.90;;;;;;6131301;23;20441;-88
2022/04/12 04:32:53;;;;;;;8.45;4.93;;;8.60;99.90;;;;;;6106483;23;20021;-88
2022/04/12 04:35:19;;;;;;;8.68;6.72;;;8.60;99.90;;;;;;6131909;23;20013;-89
2022/04/12 04:37:48;;;;;;;10.55;5.68;;;8.60;99.90;;;;;;6131269;23;20017;-88
2022/04/12 04:40:20;;;;;;;17.20;9.15;;;8.70;99.90;;;;;;6131015;23;20013;-88
2022/04/12 04:42:51;;;;;;;10.48;7.05;;;8.50;99.90;;;;;;6106647;23;20021;-89
2022/04/12 04:45:18;;;;;;;11.10;6.40;;;8.40;99.90;;;;;;6157010;23;20453;-89
2022/04/12 04:47:59;;;;;;;8.15;5.13;;;8.40;99.90;;;;;;6156839;23;20013;-90
2022/04/12 04:50:31;;;;;;;9.10;5.25;;;8.40;99.90;;;;;;6130692;23;20033;-88
2022/04/12 04:53:01;;;;;;;8.73;6.68;;;8.50;99.90;;;;;;6106836;23;20108;-89
2022/04/12 04:55:28;;;;;;;9.70;7.13;;;8.50;99.90;;;;;;6106708;23;20017;-89
2022/04/12 04:58:03;;;;;;;8.68;5.15;;;8.40;99.90;;;;;;6127821;23;20357;-89
2022/04/12 05:00:32;;;;;;;10.38;6.53;;;8.40;99.90;;;;;;6129941;23;20076;-89
2022/04/12 05:02:59;;;;;;;10.77;6.40;;;8.40;99.90;;;;;;6106759;23;20335;-89
2022/04/12 05:05:27;;;;;;;12.20;5.90;;;8.30;99.90;;;;;;6106617;23;20025;-89
2022/04/12 05:07:55;;;;;;;13.85;8.00;;;8.40;99.90;;;;;;6131700;23;20048;-89
2022/04/12 05:10:25;;;;;;;7.85;4.97;;;8.40;99.90;;;;;;6130681;23;20063;-89
2022/04/12 05:12:52;;;;;;;9.88;6.85;;;8.30;99.90;;;;;;6106953;23;20433;-89
2022/04/12 05:15:19;;;;;;;8.52;5.32;;;8.40;99.90;;;;;;6130807;23;20044;-89
2022/04/12 05:17:51;;;;;;;8.32;5.47;;;8.40;99.90;;;;;;6130856;23;20445;-88
2022/04/12 05:20:19;;;;;;;10.35;5.63;;;8.40;99.90;;;;;;6130555;23;20697;-89
2022/04/12 05:22:46;;;;;;;10.70;5.93;;;8.40;99.90;;;;;;6131053;23;20057;-90
2022/04/12 05:25:14;;;;;;;9.60;5.65;;;8.40;99.90;;;;;;6156883;23;20460;-89
2022/04/12 05:27:43;;;;;;;11.82;6.03;;;8.40;99.90;;;;;;6130673;23;20480;-88
2022/04/12 05:30:13;;;;;;;13.05;6.18;;;8.50;99.90;;;;;;6130554;23;20397;-89
2022/04/12 05:32:40;;;;;;;8.02;5.10;;;8.40;99.90;;;;;;6083353;23;20017;-88
2022/04/12 05:35:10;;;;;;;11.75;5.70;;;8.40;99.90;;;;;;6106653;23;20076;-90
2022/04/12 05:37:48;;;;;;;8.48;5.07;;;8.50;99.90;;;;;;6106885;23;20052;-89
2022/04/12 05:40:18;;;;;;;8.02;5.43;;;8.40;99.90;;;;;;6131025;23;20084;-89
2022/04/12 05:42:46;;;;;;;7.43;5.68;;;8.40;99.90;;;;;;6109181;23;20358;-89
2022/04/12 05:45:14;;;;;;;7.78;4.70;;;8.40;99.90;;;;;;6108737;23;20027;-90
2022/04/12 05:47:41;;;;;;;5.60;4.30;;;8.50;99.90;;;;;;6134750;23;20025;-89
2022/04/12 05:50:10;;;;;;;9.30;5.78;;;8.40;99.90;;;;;;6134651;23;20033;-89
2022/04/12 05:52:38;;;;;;;6.57;4.53;;;8.30;99.90;;;;;;6130276;23;20021;-89
2022/04/12 05:55:17;;;;;;;13.68;5.68;;;8.40;99.90;;;;;;6106445;23;20045;-89
2022/04/12 05:58:01;;;;;;;10.82;5.97;;;8.40;99.90;;;;;;6106272;23;20392;-89
2022/04/12 06:00:30;;;;;;;8.02;4.72;;;8.30;99.90;;;;;;6105836;23;20022;-89
2022/04/12 06:02:58;;;;;;;7.75;5.22;;;8.30;99.90;;;;;;6130672;23;20125;-89
2022/04/12 06:05:29;;;;;;;8.90;5.50;;;8.40;99.90;;;;;;6106056;23;20026;-89
2022/04/12 06:07:57;;;;;;;8.18;4.97;;;8.40;99.90;;;;;;6106010;23;20021;-88
2022/04/12 06:10:25;;;;;;;8.40;5.20;;;8.40;99.90;;;;;;6156628;23;20021;-89
2022/04/12 06:12:57;;;;;;;8.47;5.47;;;8.40;99.90;;;;;;6107392;23;20385;-89
2022/04/12 06:15:24;;;;;;;11.95;6.75;;;8.40;99.90;;;;;;6105997;23;20019;-89
2022/04/12 06:17:51;;;;;;;7.80;4.90;;;8.30;99.90;;;;;;6105922;23;20353;-90
2022/04/12 06:20:19;;;;;;;9.50;6.03;;;8.30;99.90;;;;;;6105541;23;20021;-89
2022/04/12 06:22:46;;;;;;;8.43;5.22;;;8.40;99.90;;;;;;6105945;23;20031;-89
2022/04/12 06:25:16;;;;;;;12.70;6.45;;;8.50;99.90;;;;;;6130484;23;20072;-89
2022/04/12 06:27:50;;;;;;;10.35;6.32;;;8.50;99.90;;;;;;6105755;23;20022;-89
2022/04/12 06:30:24;;;;;;;10.35;7.13;;;8.50;99.90;;;;;;6105435;23;20021;-90
2022/04/12 06:32:52;;;;;;;11.55;4.28;;;8.50;99.90;;;;;;6129995;23;20075;-89
2022/04/12 06:35:20;;;;;;;9.32;6.38;;;8.60;99.90;;;;;;6130546;23;20021;-89
2022/04/12 06:37:48;;;;;;;8.98;5.60;;;8.70;99.90;;;;;;6106976;23;20073;-89
2022/04/12 06:40:16;;;;;;;8.43;5.28;;;8.70;99.90;;;;;;6105427;23;20045;-88
2022/04/12 06:42:43;;;;;;;16.48;6.78;;;8.80;99.90;;;;;;6130239;23;20025;-90
2022/04/12 06:45:13;;;;;;;9.27;6.53;;;8.80;99.90;;;;;;6131966;23;20096;-89
2022/04/12 06:47:41;;;;;;;9.63;6.30;;;8.90;99.90;;;;;;6131509;23;20096;-88
2022/04/12 06:50:10;;;;;;;7.38;4.90;;;8.90;99.90;;;;;;6160897;23;20084;-88
2022/04/12 06:52:38;;;;;;;10.60;5.72;;;9.00;99.90;;;;;;6121868;23;20033;-88
2022/04/12 06:55:05;;;;;;;6.70;4.60;;;9.00;99.90;;;;;;6150645;23;20060;-89
2022/04/12 06:57:35;;;;;;;9.32;5.80;;;9.00;99.90;;;;;;6138567;23;20093;-88
2022/04/12 07:00:05;;;;;;;9.43;6.68;;;9.00;99.90;;;;;;6159158;23;20149;-87
2022/04/12 07:02:32;;;;;;;10.48;6.70;;;9.10;99.90;;;;;;6133516;23;20100;-88
2022/04/12 07:04:59;;;;;;;13.57;5.78;;;9.10;99.90;;;;;;6107479;23;20018;-88
2022/04/12 07:07:26;;;;;;;10.20;5.75;;;9.10;99.90;;;;;;6106421;23;20079;-88
2022/04/12 07:09:55;;;;;;;7.03;5.10;;;9.20;99.90;;;;;;6130596;23;20108;-88
2022/04/12 07:12:22;;;;;;;14.32;5.88;;;9.20;99.90;;;;;;6130491;23;20108;-87
2022/04/12 07:14:48;;;;;;;9.23;6.25;;;9.20;99.90;;;;;;6106317;23;20152;-89
2022/04/12 07:17:20;;;;;;;8.98;5.60;;;9.20;99.90;;;;;;6131486;23;20064;-88
2022/04/12 07:19:47;;;;;;;9.82;5.28;;;9.40;99.90;;;;;;6131683;23;20017;-88
2022/04/12 07:22:14;;;;;;;7.50;5.25;;;9.40;99.90;;;;;;6130952;23;20073;-89
2022/04/12 07:24:41;;;;;;;9.55;4.72;;;9.40;99.90;;;;;;6130613;23;20021;-89
2022/04/12 07:27:08;;;;;;;11.70;6.25;;;9.50;99.90;;;;;;6156805;23;20101;-88
2022/04/12 07:29:35;;;;;;;9.07;4.55;;;9.60;99.90;;;;;;6106603;23;20104;-89
2022/04/12 07:32:03;;;;;;;8.30;5.07;;;9.60;99.90;;;;;;6156868;23;20028;-88
2022/04/12 07:34:30;;;;;;;9.68;6.28;;;9.60;99.90;;;;;;6156548;23;20441;-89
2022/04/12 07:36:58;;;;;;;7.75;5.03;;;9.60;99.90;;;;;;6106334;23;20024;-89
2022/04/12 07:39:25;;;;;;;12.43;6.90;;;9.50;99.90;;;;;;6130248;23;20119;-90
2022/04/12 07:41:53;;;;;;;10.88;5.35;;;9.60;99.90;;;;;;6105770;23;20029;-90
2022/04/12 07:44:21;;;;;;;8.95;5.50;;;9.70;99.90;;;;;;6156491;23;20027;-88
2022/04/12 07:46:48;;;;;;;11.82;7.22;;;9.80;99.90;;;;;;6132653;23;20021;-88
2022/04/12 07:49:16;;;;;;;9.10;5.20;;;9.80;99.90;;;;;;6133590;23;20021;-89
2022/04/12 07:51:43;;;;;;;8.93;6.00;;;9.80;99.90;;;;;;6134354;23;20053;-88
2022/04/12 07:54:11;;;;;;;13.35;6.68;;;9.70;99.90;;;;;;6134202;23;20017;-90
2022/04/12 07:56:39;;;;;;;10.52;5.72;;;9.70;99.90;;;;;;6155549;23;20014;-88
2022/04/12 07:59:08;;;;;;;9.82;5.65;;;9.70;99.90;;;;;;6155380;23;20028;-89
2022/04/12 08:01:35;;;;;;;14.55;6.55;;;9.90;99.90;;;;;;6155545;23;20045;-89
2022/04/12 08:04:02;;;;;;;10.77;6.20;;;10.00;99.90;;;;;;6105374;23;20452;-90
2022/04/12 08:06:29;;;;;;;12.38;7.25;;;10.00;99.90;;;;;;6129204;23;20109;-90
2022/04/12 08:08:56;;;;;;;11.80;6.88;;;10.10;99.90;;;;;;6106544;23;20021;-90
2022/04/12 08:11:23;;;;;;;11.25;6.18;;;10.20;99.90;;;;;;6106810;23;20033;-90
2022/04/12 08:13:50;;;;;;;10.13;6.18;;;10.20;99.90;;;;;;6106678;23;20072;-89
2022/04/12 08:16:17;;;;;;;9.57;5.32;;;10.20;99.90;;;;;;6131170;23;20017;-88
2022/04/12 08:18:46;;;;;;;9.20;6.03;;;10.30;99.90;;;;;;6131345;23;20017;-89
2022/04/12 08:21:13;;;;;;;12.40;6.18;;;10.40;99.90;;;;;;6107183;23;20022;-90
2022/04/12 08:23:41;;;;;;;11.07;6.85;;;10.40;99.90;;;;;;6130962;23;20327;-89
2022/04/12 08:26:08;;;;;;;12.13;6.45;;;10.40;99.90;;;;;;6157670;23;20044;-89
2022/04/12 08:28:35;;;;;;;13.10;7.18;;;10.50;99.90;;;;;;6107024;23;20408;-88
2022/04/12 08:31:02;;;;;;;11.35;6.75;;;10.50;99.90;;;;;;6131633;23;20064;-89
2022/04/12 08:33:30;;;;;;;11.95;6.07;;;10.60;99.90;;;;;;6131399;23;20045;-88
2022/04/12 08:35:57;;;;;;;10.70;6.55;;;10.50;99.90;;;;;;6131277;23;20024;-90
2022/04/12 08:38:24;;;;;;;11.15;6.15;;;10.60;99.90;;;;;;6157080;23;20029;-89
2022/04/12 08:40:54;;;;;;;11.05;6.03;;;10.60;99.90;;;;;;6106316;23;20018;-88
2022/04/12 08:43:23;;;;;;;9.20;6.05;;;10.60;99.90;;;;;;6107084;23;20022;-89
2022/04/12 08:45:52;;;;;;;10.00;6.68;;;10.60;99.90;;;;;;6131054;23;20025;-89
2022/04/12 08:48:20;;;;;;;8.80;6.32;;;10.80;99.90;;;;;;6131023;23;20112;-88
2022/04/12 08:50:52;;;;;;;11.50;6.82;;;11.00;99.90;;;;;;6130889;23;20104;-88
2022/04/12 08:53:22;;;;;;;6.88;4.90;;;11.00;99.90;;;;;;6135852;23;20021;-88
2022/04/12 08:55:48;;;;;;;12.60;7.50;;;10.80;99.90;;;;;;6134062;23;20025;-88
2022/04/12 08:58:15;;;;;;;8.40;5.75;;;10.90;99.90;;;;;;6156989;23;20354;-89
2022/04/12 09:00:43;;;;;;;11.20;5.80;;;11.00;99.90;;;;;;6108842;23;20104;-89
2022/04/12 09:03:14;;;;;;;9.82;7.30;;;11.00;99.90;;;;;;6135071;23;20051;-88
2022/04/12 09:05:41;;;;;;;11.40;6.97;;;11.10;99.90;;;;;;6131509;23;20108;-89
2022/04/12 09:08:29;;;;;;;11.52;6.88;;;11.30;99.90;;;;;;6130588;23;20045;-89
2022/04/12 09:10:58;;;;;;;13.50;6.47;;;11.30;99.90;;;;;;6106274;23;20057;-89
2022/04/12 09:13:25;;;;;;;8.65;6.22;;;11.10;99.90;;;;;;6130904;23;20041;-89
2022/04/12 09:15:53;;;;;;;11.43;7.78;;;11.20;99.90;;;;;;6157078;23;20381;-88
2022/04/12 09:18:43;;;;;;;9.40;6.22;;;11.50;99.90;;;;;;6109779;23;20024;-89
2022/04/12 09:21:12;;;;;;;10.70;6.80;;;11.30;99.90;;;;;;6130734;23;20096;-90
2022/04/12 09:23:49;;;;;;;11.48;7.40;;;11.50;99.90;;;;;;6130830;23;20048;-89
2022/04/12 09:26:21;;;;;;;13.85;7.07;;;11.50;99.90;;;;;;6130903;23;20018;-89
2022/04/12 09:28:50;;;;;;;11.35;7.45;;;11.60;99.90;;;;;;6130874;23;20124;-89
2022/04/12 09:31:21;;;;;;;15.23;8.07;;;11.70;99.90;;;;;;6107229;23;20026;-89
2022/04/12 09:33:50;;;;;;;12.82;7.22;;;11.90;99.90;;;;;;6156372;23;20020;-88
2022/04/12 09:36:16;;;;;;;10.52;7.00;;;12.10;99.90;;;;;;6156947;23;20097;-89
2022/04/12 09:38:46;;;;;;;16.23;7.30;;;12.00;99.90;;;;;;6106124;23;20026;-88
2022/04/12 09:41:16;;;;;;;12.82;7.13;;;11.90;99.90;;;;;;6106047;23;20044;-88
2022/04/12 09:44:11;;;;;;;9.85;6.15;;;11.90;99.90;;;;;;6156456;23;20080;-88
2022/04/12 09:46:39;;;;;;;10.77;7.20;;;11.80;99.90;;;;;;6105977;23;20049;-89
2022/04/12 09:49:07;;;;;;;13.43;6.80;;;11.90;99.90;;;;;;6157067;23;20024;-88
2022/04/12 09:51:37;;;;;;;11.18;6.53;;;12.00;99.90;;;;;;6111406;23;20025;-88
2022/04/12 09:54:06;;;;;;;10.32;6.07;;;12.20;99.90;;;;;;6109985;23;20513;-87
2022/04/12 09:56:39;;;;;;;9.95;6.07;;;12.10;99.90;;;;;;6112891;23;20408;-88
2022/04/12 09:59:12;;;;;;;12.85;6.28;;;12.20;99.90;;;;;;6131236;23;20449;-88
2022/04/12 10:01:39;;;;;;;13.23;7.05;;;12.00;99.90;;;;;;6130861;23;20049;-88
2022/04/12 10:04:27;;;;;;;12.25;7.47;;;12.50;99.90;;;;;;6157189;23;20022;-88
2022/04/12 10:06:56;;;;;;;11.18;6.97;;;12.80;99.90;;;;;;6157481;23;20120;-89
2022/04/12 10:09:23;;;;;;;13.52;8.32;;;12.80;99.90;;;;;;6106758;23;20025;-88
2022/04/12 10:11:50;;;;;;;11.02;7.80;;;12.70;99.90;;;;;;6130962;23;20018;-88
2022/04/12 10:14:18;;;;;;;16.15;7.63;;;12.80;99.90;;;;;;6131387;23;20096;-89
2022/04/12 10:16:46;;;;;;;11.10;7.80;;;13.00;99.90;;;;;;6105928;23;20017;-88
2022/04/12 10:19:14;;;;;;;13.10;8.63;;;13.00;99.90;;;;;;6106161;23;20021;-89
2022/04/12 10:21:41;;;;;;;10.25;7.57;;;13.30;99.90;;;;;;6106654;23;20108;-90
2022/04/12 10:24:10;;;;;;;11.15;7.35;;;13.30;99.90;;;;;;6129998;23;20108;-88
2022/04/12 10:26:38;;;;;;;13.07;7.43;;;13.20;99.90;;;;;;6106418;23;20100;-89
2022/04/12 10:29:13;;;;;;;10.25;7.25;;;13.10;99.90;;;;;;6107736;23;20026;-89
2022/04/12 10:31:55;;;;;;;12.02;8.15;;;13.10;99.90;;;;;;6131180;23;20101;-88
2022/04/12 10:34:59;;;;;;;7.68;6.35;;;13.40;99.90;;;;;;6110878;23;20105;-88
2022/04/12 10:37:28;;;;;;;10.05;7.35;;;13.40;99.90;;;;;;6130545;23;20068;-88
2022/04/12 10:40:15;;;;;;;12.60;8.23;;;13.70;99.90;;;;;;6134138;23;20385;-88
2022/04/12 10:42:53;;;;;;;13.50;7.75;;;13.80;99.90;;;;;;6130480;23;20449;-89
2022/04/12 10:45:33;;;;;;;13.35;8.40;;;13.90;99.90;;;;;;6131146;23;20040;-88
2022/04/12 10:48:02;;;;;;;11.10;7.10;;;14.20;99.90;;;;;;6106128;23;20037;-88
2022/04/12 10:50:42;;;;;;;12.15;7.75;;;14.10;99.90;;;;;;6129938;23;20081;-88
2022/04/12 10:53:09;;;;;;;12.10;8.25;;;14.10;93.10;;;;;;6131358;23;20033;-89
2022/04/12 10:55:43;;;;;;;12.38;6.43;;;14.20;85.60;;;;;;6129776;23;20153;-87
2022/04/12 10:58:28;;;;;;;15.18;7.80;;;14.10;92.00;;;;;;6156249;23;20020;-87
2022/04/12 11:00:55;;;;;;;11.93;7.82;;;14.10;77.00;;;;;;6130007;23;20086;-88
2022/04/12 11:03:40;;;;;;;12.45;7.45;;;14.00;76.30;;;;;;6129310;23;20026;-87
2022/04/12 11:06:20;;;;;;;11.45;7.20;;;14.00;80.10;;;;;;6129943;23;20072;-88
2022/04/12 11:08:50;;;;;;;15.65;8.43;;;14.10;63.60;;;;;;6130289;23;20021;-87
2022/04/12 11:11:26;;;;;;;12.07;7.25;;;14.20;60.30;;;;;;6154955;23;20401;-89
2022/04/12 11:13:55;;;;;;;13.82;7.55;;;14.20;60.10;;;;;;6156139;23;20029;-88
2022/04/12 11:16:27;;;;;;;9.93;7.07;;;14.30;33.00;;;;;;6129704;23;20449;-88
2022/04/12 11:18:59;;;;;;;12.02;7.43;;;14.30;26.30;;;;;;6105405;23;20025;-88
2022/04/12 11:21:54;;;;;;;13.48;7.18;;;14.40;20.60;;;;;;6105518;23;20076;-88
2022/04/12 11:24:24;;;;;;;15.18;7.53;;;14.40;35.60;;;;;;6129858;23;20061;-88
2022/04/12 11:27:06;;;;;;;13.05;6.82;;;14.40;13.70;;;;;;6129390;23;20049;-90
2022/04/12 11:29:34;;;;;;;11.25;6.93;;;14.50;7.20;;;;;;6104958;23;20049;-87
2022/04/12 11:32:02;;;;;;;9.45;6.10;;;14.40;13.00;;;;;;6129689;23;20104;-88
2022/04/12 11:34:29;;;;;;;11.95;6.78;;;14.60;8.60;;;;;;6105103;23;20318;-88
2022/04/12 11:36:59;;;;;;;16.40;7.50;;;14.60;1.00;;;;;;6130504;23;20017;-87
2022/04/12 11:39:32;;;;;;;14.98;7.25;;;14.70;1.00;;;;;;6105873;23;20092;-89
2022/04/12 11:42:01;;;;;;;12.95;7.60;;;14.70;1.00;;;;;;6106243;23;20014;-88
2022/04/12 11:44:28;;;;;;;13.30;7.50;;;14.80;1.00;;;;;;6131771;23;20025;-88
2022/04/12 11:47:03;;;;;;;13.43;7.00;;;14.80;1.00;;;;;;6107787;23;20060;-88
2022/04/12 11:49:32;;;;;;;13.75;7.68;;;14.80;1.00;;;;;;6131265;23;20029;-88
2022/04/12 11:52:01;;;;;;;16.45;7.85;;;14.80;1.00;;;;;;6132167;23;20475;-88
2022/04/12 11:54:31;;;;;;;11.65;6.80;;;14.90;1.00;;;;;;6161902;23;20096;-88
2022/04/12 11:57:14;;;;;;;8.52;5.70;;;14.90;1.00;;;;;;6111615;23;20105;-87
2022/04/12 11:59:44;;;;;;;7.13;5.20;;;14.90;1.00;;;;;;6161277;23;20013;-88
2022/04/12 12:02:11;;;;;;;11.23;7.20;;;14.90;1.00;;;;;;6134915;23;20045;-88
2022/04/12 12:04:45;;;;;;;9.80;6.60;;;15.00;1.00;;;;;;6131647;23;20438;-88
2022/04/12 12:07:14;;;;;;;10.10;6.65;;;15.10;1.00;;;;;;6131043;23;20036;-88
2022/04/12 12:10:11;;;;;;;11.85;7.13;;;15.10;1.00;;;;;;6132605;23;20438;-88
2022/04/12 12:12:46;;;;;;;10.95;7.07;;;15.20;1.00;;;;;;6131713;23;20511;-88
2022/04/12 12:15:22;;;;;;;10.40;7.07;;;15.30;1.00;;;;;;6108723;23;20112;-88
2022/04/12 12:17:51;;;;;;;10.38;6.47;;;15.30;1.00;;;;;;6107958;23;20025;-88
2022/04/12 12:20:21;;;;;;;8.75;5.38;;;15.40;1.00;;;;;;6106870;23;20027;-87
2022/04/12 12:22:50;;;;;;;14.13;7.80;;;15.50;1.00;;;;;;6131433;23;20513;-87
2022/04/12 12:25:23;;;;;;;12.73;8.02;;;15.60;1.00;;;;;;6131428;23;20029;-87
2022/04/12 12:27:52;;;;;;;13.27;7.63;;;15.70;1.00;;;;;;6131932;23;20025;-88
2022/04/12 12:30:20;;;;;;;9.50;5.70;;;15.90;1.00;;;;;;6156678;23;20021;-89
2022/04/12 12:32:51;;;;;;;15.05;7.32;;;16.00;1.00;;;;;;6107515;23;20060;-88
2022/04/12 12:35:19;;;;;;;14.60;8.15;;;16.10;1.00;;;;;;6131984;23;20318;-89
2022/04/12 12:37:46;;;;;;;11.65;7.13;;;16.20;1.00;;;;;;6157585;23;20084;-89
2022/04/12 12:40:23;;;;;;;14.63;7.32;;;16.20;1.00;;;;;;6130758;23;20037;-88
2022/04/12 12:42:52;;;;;;;12.93;7.65;;;16.30;1.00;;;;;;6107719;23;20401;-88
2022/04/12 12:45:21;;;;;;;10.38;6.70;;;16.40;1.00;;;;;;6157437;23;20021;-88
2022/04/12 12:47:53;;;;;;;13.23;7.75;;;16.60;1.00;;;;;;6157885;23;20349;-88
2022/04/12 12:50:23;;;;;;;24.02;8.48;;;16.70;1.00;;;;;;6157887;23;20089;-89
2022/04/12 12:52:57;;;;;;;14.30;8.13;;;16.70;1.00;;;;;;6157635;23;20021;-88
2022/04/12 12:55:27;;;;;;;13.85;7.80;;;16.80;1.00;;;;;;6131603;23;20043;-88
2022/04/12 12:57:58;;;;;;;8.93;6.15;;;16.80;1.00;;;;;;6107218;23;20029;-88
2022/04/12 13:00:29;;;;;;;13.35;6.88;;;16.90;1.00;;;;;;6157060;23;20017;-88
2022/04/12 13:03:04;;;;;;;12.70;6.32;;;17.10;1.00;;;;;;6131790;23;20017;-89